Time;durP1;ratioP1;P1;durP2;ratioP2;P2;SDS_P1;SDS_P2;PMS_P1;PMS_P2;Temp;Humidity;BMP_temperature;BMP_pressure;BME280_temperature;BME280_humidity;BME280_pressure;Samples;Min_cycle;Max_cycle;Signal;HPM_P1;HPM_P2
2021/12/10 04:31:48;;;;;;;6.93;4.07;;;;;;;5.79;56.09;97003.31;7735095;23;20235;-80
2021/12/10 04:35:11;;;;;;;8.70;4.37;;;;;;;5.96;56.17;97009.78;6922932;28;20259;-80
2021/12/10 04:38:34;;;;;;;6.57;4.43;;;;;;;5.80;56.12;97004.19;6910815;28;20203;-80
2021/12/10 04:41:58;;;;;;;9.63;5.00;;;;;;;5.90;56.36;97008.00;6925854;28;20219;-81
2021/12/10 04:45:19;;;;;;;7.30;4.53;;;;;;;6.00;55.34;97000.31;6925099;28;20689;-79
2021/12/10 04:48:52;;;;;;;6.43;4.17;;;;;;;5.58;56.11;96984.19;6921741;28;20204;-79
2021/12/10 04:52:14;;;;;;;7.57;4.30;;;;;;;5.67;56.08;96996.25;6922363;28;20241;-80
2021/12/10 04:55:37;;;;;;;5.30;4.10;;;;;;;5.86;55.50;96993.44;6922097;28;20241;-80
2021/12/10 04:58:59;;;;;;;10.03;4.77;;;;;;;5.83;55.48;96987.72;6922670;28;20204;-79
2021/12/10 05:02:20;;;;;;;5.97;4.20;;;;;;;5.74;55.43;96968.44;6922201;28;20247;-81
2021/12/10 05:05:45;;;;;;;8.90;4.43;;;;;;;5.60;56.24;96982.13;6920628;28;20207;-79
2021/12/10 05:09:09;;;;;;;7.57;4.60;;;;;;;5.73;55.51;96972.13;6921101;28;20235;-79
2021/12/10 05:12:30;;;;;;;6.00;4.50;;;;;;;5.64;56.03;96973.47;6935087;28;20219;-80
2021/12/10 05:15:55;;;;;;;5.83;4.37;;;;;;;5.78;55.21;96971.50;6923548;28;20211;-81
2021/12/10 05:19:21;;;;;;;9.20;4.70;;;;;;;5.64;56.23;96953.91;6923872;28;20195;-80
2021/12/10 05:22:46;;;;;;;8.60;4.97;;;;;;;5.76;55.46;96952.16;6923404;28;20227;-80
2021/12/10 05:26:08;;;;;;;10.97;6.37;;;;;;;5.73;55.64;96923.22;6923199;28;20199;-79
2021/12/10 05:29:30;;;;;;;7.83;5.77;;;;;;;5.68;55.64;96926.53;6922784;28;20203;-80
2021/12/10 05:32:52;;;;;;;13.80;6.20;;;;;;;5.60;55.75;96912.66;6920782;28;20235;-80
2021/12/10 05:36:13;;;;;;;10.10;6.30;;;;;;;4.65;57.22;96888.13;6921300;28;20211;-80
2021/12/10 05:39:36;;;;;;;7.70;5.73;;;;;;;4.41;59.01;96911.00;6921619;28;20210;-80
2021/12/10 05:42:58;;;;;;;11.27;5.70;;;;;;;4.62;58.96;96905.38;6927887;28;20313;-82
2021/12/10 05:46:20;;;;;;;9.00;6.13;;;;;;;4.86;58.51;96912.63;6925753;28;20212;-80
2021/12/10 05:49:42;;;;;;;6.87;5.73;;;;;;;5.12;57.35;96901.72;6921365;28;20211;-79
2021/12/10 05:53:03;;;;;;;7.10;6.40;;;;;;;5.13;57.00;96902.56;6921163;28;20220;-79
2021/12/10 05:56:26;;;;;;;12.00;7.17;;;;;;;5.43;56.96;96893.66;6919631;28;20230;-79
2021/12/10 05:59:48;;;;;;;11.27;6.33;;;;;;;5.55;56.12;96899.13;6922709;28;20627;-79
2021/12/10 06:03:10;;;;;;;13.77;7.37;;;;;;;5.45;56.33;96901.47;6924944;28;20227;-80
2021/12/10 06:06:33;;;;;;;11.30;6.70;;;;;;;5.35;56.06;96880.59;6925813;28;20204;-79
2021/12/10 06:09:55;;;;;;;9.97;6.67;;;;;;;5.73;55.79;96881.22;6927544;28;20214;-79
2021/12/10 06:13:18;;;;;;;8.77;7.07;;;;;;;5.49;55.62;96852.69;6926039;28;20224;-80
2021/12/10 06:16:40;;;;;;;9.20;6.23;;;;;;;5.67;55.48;96889.34;6924042;28;20216;-79
2021/12/10 06:20:02;;;;;;;9.67;7.30;;;;;;;5.25;56.05;96880.25;6923450;28;20201;-80
2021/12/10 06:23:24;;;;;;;9.43;6.00;;;;;;;5.29;56.10;96851.25;6923078;28;20232;-79
2021/12/10 06:26:45;;;;;;;13.07;7.30;;;;;;;5.32;56.15;96883.69;6922342;28;20211;-79
2021/12/10 06:30:10;;;;;;;10.10;7.60;;;;;;;5.00;56.81;96882.09;6923172;28;20219;-78
2021/12/10 06:33:32;;;;;;;11.97;8.10;;;;;;;5.27;56.53;96867.53;6922385;28;20243;-79
2021/12/10 06:36:53;;;;;;;9.97;8.60;;;;;;;5.45;56.43;96856.03;6921890;28;20215;-79
2021/12/10 06:40:18;;;;;;;9.33;7.63;;;;;;;4.86;55.20;96723.06;6923106;28;20195;-79
2021/12/10 06:43:40;;;;;;;12.73;7.60;;;;;;;5.39;54.79;96815.00;6926797;28;20212;-79
2021/12/10 06:47:05;;;;;;;15.17;8.83;;;;;;;4.93;55.19;96782.56;6945507;28;20205;-79
2021/12/10 06:50:29;;;;;;;13.03;8.00;;;;;;;5.23;56.19;96812.06;6928482;28;20211;-79
2021/12/10 06:53:51;;;;;;;12.97;7.80;;;;;;;5.20;56.05;96813.31;6925928;28;20207;-81
2021/12/10 06:57:13;;;;;;;14.07;8.20;;;;;;;5.32;56.13;96810.75;6925333;28;20213;-79
2021/12/10 07:00:43;;;;;;;12.33;8.43;;;;;;;4.99;56.20;96787.03;6924994;28;20219;-79
2021/12/10 07:04:09;;;;;;;13.87;8.83;;;;;;;4.63;57.77;96794.09;6923921;28;20207;-78
2021/12/10 07:07:32;;;;;;;16.77;9.20;;;;;;;4.80;58.16;96763.16;6925284;28;20772;-79
2021/12/10 07:10:54;;;;;;;18.07;9.53;;;;;;;4.97;57.93;96766.91;6925667;28;20616;-79
2021/12/10 07:14:16;;;;;;;12.00;9.00;;;;;;;5.07;57.27;96794.75;6922932;28;20218;-78
2021/12/10 07:17:40;;;;;;;14.73;9.27;;;;;;;5.05;57.14;96780.81;6928197;28;20208;-78
2021/12/10 07:21:03;;;;;;;10.10;8.77;;;;;;;5.16;56.71;96760.56;6924388;28;20333;-78
2021/12/10 07:24:25;;;;;;;18.70;10.07;;;;;;;4.82;58.23;96735.22;6922368;28;20228;-79
2021/12/10 07:27:47;;;;;;;12.10;9.00;;;;;;;5.05;57.03;96726.56;6923820;28;20678;-80
2021/12/10 07:31:10;;;;;;;9.77;7.30;;;;;;;5.21;57.21;96716.16;6922890;28;20242;-79
2021/12/10 07:34:32;;;;;;;18.00;10.20;;;;;;;5.27;56.61;96690.38;6922707;28;20203;-80
2021/12/10 07:37:55;;;;;;;14.33;10.23;;;;;;;5.42;55.72;96691.63;6922234;28;20211;-80
2021/12/10 07:41:17;;;;;;;13.80;8.10;;;;;;;4.96;56.69;96669.97;6922986;28;20235;-80
2021/12/10 07:44:39;;;;;;;12.00;8.63;;;;;;;4.05;59.06;96614.00;6922871;28;20231;-80
2021/12/10 07:48:03;;;;;;;11.60;8.00;;;;;;;4.16;59.32;96694.13;6923539;28;20203;-79
2021/12/10 07:51:27;;;;;;;14.10;7.40;;;;;;;4.66;57.99;96684.25;6923744;28;20223;-79
2021/12/10 07:54:51;;;;;;;12.30;8.27;;;;;;;4.37;59.09;96683.06;6921939;28;20238;-79
2021/12/10 07:58:12;;;;;;;9.50;7.07;;;;;;;4.87;57.03;96678.50;6923120;28;20211;-80
2021/12/10 08:01:34;;;;;;;8.73;7.47;;;;;;;5.34;55.39;96662.56;6922715;28;20227;-79
2021/12/10 08:04:56;;;;;;;10.43;7.43;;;;;;;5.39;55.23;96692.09;6922200;28;20223;-79
2021/12/10 08:08:18;;;;;;;8.83;6.90;;;;;;;5.78;54.31;96680.88;6923220;28;20215;-79
2021/12/10 08:11:41;;;;;;;9.77;7.00;;;;;;;5.66;53.49;96661.31;6923214;28;20292;-80
2021/12/10 08:15:04;;;;;;;8.83;7.43;;;;;;;5.48;54.68;96674.69;6922301;28;20298;-79
2021/12/10 08:18:26;;;;;;;11.57;7.17;;;;;;;5.83;54.48;96669.56;6922620;28;20207;-79
2021/12/10 08:21:48;;;;;;;9.00;6.67;;;;;;;6.43;52.57;96684.47;6922856;28;20247;-79
2021/12/10 08:25:10;;;;;;;14.97;9.33;;;;;;;6.52;52.69;96677.72;6922031;28;20222;-79
2021/12/10 08:28:34;;;;;;;13.70;8.33;;;;;;;6.52;52.62;96662.50;6922666;28;20205;-79
2021/12/10 08:31:55;;;;;;;11.43;8.60;;;;;;;6.61;53.76;96673.66;6922278;28;20220;-79
2021/12/10 08:35:20;;;;;;;10.97;7.00;;;;;;;6.27;52.00;96663.72;6921573;28;20204;-79
2021/12/10 08:38:42;;;;;;;9.63;7.00;;;;;;;6.66;53.05;96660.41;6922051;28;20547;-79
2021/12/10 08:42:04;;;;;;;12.07;8.10;;;;;;;6.40;54.29;96645.63;6921904;28;20220;-79
2021/12/10 08:45:28;;;;;;;13.20;8.57;;;;;;;6.60;54.29;96670.16;6921495;28;20227;-78
2021/12/10 08:48:49;;;;;;;13.43;9.93;;;;;;;6.49;54.56;96675.53;6921341;28;20211;-79
2021/12/10 08:52:12;;;;;;;12.40;8.53;;;;;;;6.21;54.85;96660.13;6921346;28;20597;-79
2021/12/10 08:55:36;;;;;;;14.23;9.83;;;;;;;6.08;55.72;96691.59;6921522;28;20678;-80
2021/12/10 08:58:58;;;;;;;10.90;9.60;;;;;;;6.33;55.88;96694.91;6921847;28;20206;-79
2021/12/10 09:02:21;;;;;;;13.53;8.93;;;;;;;6.34;55.13;96691.19;6921777;28;20246;-79
2021/12/10 09:05:43;;;;;;;12.63;8.67;;;;;;;6.53;55.22;96693.56;6921242;28;20231;-79
2021/12/10 09:09:10;;;;;;;14.90;8.03;;;;;;;7.09;53.76;96675.06;6921586;28;20200;-79
2021/12/10 09:12:32;;;;;;;9.57;7.60;;;;;;;7.39;52.70;96678.41;6920538;28;20237;-78
2021/12/10 09:16:00;;;;;;;12.77;8.70;;;;;;;7.21;53.24;96670.50;6920484;28;20314;-79
2021/12/10 09:19:24;;;;;;;10.37;8.47;;;;;;;7.18;53.54;96662.13;6921704;28;20214;-78
2021/12/10 09:22:45;;;;;;;10.40;8.20;;;;;;;6.83;54.40;96664.81;6921299;28;20722;-79
2021/12/10 09:26:10;;;;;;;11.93;8.53;;;;;;;6.99;54.91;96660.63;6920648;28;20226;-78
2021/12/10 09:29:35;;;;;;;10.73;8.20;;;;;;;7.21;53.94;96648.25;6921101;28;20223;-79
2021/12/10 09:32:57;;;;;;;12.90;9.63;;;;;;;7.27;53.57;96655.34;6919704;28;20284;-79
2021/12/10 09:36:20;;;;;;;11.97;7.63;;;;;;;6.60;54.66;96661.34;6920059;28;20688;-79
2021/12/10 09:39:43;;;;;;;10.63;7.50;;;;;;;6.74;55.50;96650.16;6920789;28;20213;-78
2021/12/10 09:43:06;;;;;;;9.80;7.07;;;;;;;6.61;55.23;96618.25;6920782;28;20231;-77
2021/12/10 09:46:28;;;;;;;12.07;8.20;;;;;;;6.91;54.81;96639.56;6920144;28;20228;-78
2021/12/10 09:49:54;;;;;;;12.63;7.30;;;;;;;6.75;54.97;96638.41;6921059;28;20216;-78
2021/12/10 09:53:17;;;;;;;12.40;7.40;;;;;;;6.08;55.47;96620.19;6921835;28;20228;-80
2021/12/10 09:56:39;;;;;;;14.57;7.97;;;;;;;6.53;55.20;96567.75;6922337;28;20625;-79
2021/12/10 10:00:03;;;;;;;13.30;9.93;;;;;;;7.36;53.64;96595.75;6921801;28;20208;-79
2021/12/10 10:03:30;;;;;;;16.37;8.97;;;;;;;7.47;53.94;96602.94;6921095;28;20232;-78
2021/12/10 10:06:54;;;;;;;13.57;8.77;;;;;;;7.49;53.59;96574.03;6920213;28;20664;-79
2021/12/10 10:10:18;;;;;;;11.00;8.37;;;;;;;7.82;52.58;96589.38;6921157;28;20370;-79
2021/12/10 10:13:42;;;;;;;13.00;8.60;;;;;;;7.74;53.27;96592.47;6920327;28;20204;-78
2021/12/10 10:17:05;;;;;;;13.60;9.20;;;;;;;7.09;54.80;96557.19;6919842;28;20211;-78
2021/12/10 10:20:29;;;;;;;10.90;8.30;;;;;;;7.47;54.84;96580.69;6920699;28;20245;-79
2021/12/10 10:23:51;;;;;;;9.27;7.40;;;;;;;7.83;53.84;96577.63;6920140;28;20207;-79
2021/12/10 10:27:18;;;;;;;10.47;8.67;;;;;;;7.28;54.85;96552.44;6920060;28;20212;-79
2021/12/10 10:30:43;;;;;;;11.97;8.73;;;;;;;7.85;54.10;96554.84;6920122;28;20581;-79
2021/12/10 10:34:05;;;;;;;13.60;8.63;;;;;;;8.06;54.29;96554.13;6920141;28;20193;-78
2021/12/10 10:37:26;;;;;;;11.13;7.83;;;;;;;8.19;53.90;96544.94;6920213;28;20207;-78
2021/12/10 10:40:52;;;;;;;7.50;6.60;;;;;;;8.07;54.13;96534.28;6920233;28;20221;-78
2021/12/10 10:44:17;;;;;;;8.63;6.60;;;;;;;8.27;53.77;96526.59;6920200;28;20231;-78
2021/12/10 10:47:38;;;;;;;7.53;6.23;;;;;;;8.14;53.59;96478.56;6924821;28;20208;-78
2021/12/10 10:51:02;;;;;;;6.77;5.47;;;;;;;7.75;53.59;96503.72;6924576;28;20593;-81
2021/12/10 10:54:30;;;;;;;5.07;3.70;;;;;;;7.45;50.03;96497.03;6925077;28;20208;-78
2021/12/10 10:57:56;;;;;;;5.13;2.70;;;;;;;7.92;46.55;96479.56;6925185;28;20208;-78
2021/12/10 11:01:25;;;;;;;3.57;3.00;;;;;;;7.07;46.33;96492.31;6925082;28;20314;-79
2021/12/10 11:04:49;;;;;;;4.03;2.83;;;;;;;6.88;46.45;96477.47;6924183;28;20225;-77
2021/12/10 11:08:11;;;;;;;3.00;2.50;;;;;;;6.97;47.27;96477.91;6925316;28;20301;-78
2021/12/10 11:11:35;;;;;;;3.60;3.00;;;;;;;6.78;47.67;96473.78;6924281;28;20224;-78
2021/12/10 11:15:11;;;;;;;3.13;2.67;;;;;;;7.39;45.53;96406.84;6941382;23;20601;-87
2021/12/10 11:18:44;;;;;;;2.57;2.40;;;;;;;7.40;43.84;96336.94;6955624;28;20209;-87
2021/12/10 11:30:13;;;;;;;2.47;2.27;;;;;;;8.32;44.14;96440.75;6963650;28;20184;-87
2021/12/10 11:34:00;;;;;;;4.60;2.30;;;;;;;7.70;43.72;96321.28;6952480;28;20204;-87
2021/12/10 11:54:09;;;;;;;4.03;3.07;;;;;;;7.92;42.73;96367.75;6656918;29;20208;-87
2021/12/10 11:58:07;;;;;;;2.93;2.63;;;;;;;7.41;42.98;96289.50;6689271;29;20227;-88
2021/12/10 12:01:30;;;;;;;4.33;3.20;;;;;;;8.10;42.89;96415.75;6689088;29;20215;-87
2021/12/10 12:04:54;;;;;;;2.90;2.60;;;;;;;8.66;43.98;96500.56;6642538;29;20769;-87
2021/12/10 12:08:18;;;;;;;2.80;2.60;;;;;;;8.15;43.87;96525.84;6674010;29;20215;-87
2021/12/10 12:11:45;;;;;;;2.60;2.40;;;;;;;6.96;44.42;96412.00;6739236;29;20209;-87
2021/12/10 12:15:35;;;;;;;2.47;2.30;;;;;;;8.28;43.76;96528.22;6792131;29;20224;-87
2021/12/10 12:19:00;;;;;;;2.93;2.53;;;;;;;7.90;45.82;96484.38;6756677;29;20216;-87
2021/12/10 12:26:02;;;;;;;3.07;2.60;;;;;;;6.20;51.00;96336.66;6878818;28;20263;-87
2021/12/10 12:29:24;;;;;;;2.97;2.73;;;;;;;7.07;50.88;96363.72;6955234;28;20219;-88
2021/12/10 12:32:56;;;;;;;2.80;2.60;;;;;;;7.49;51.71;96474.03;6955382;28;20199;-87
2021/12/10 12:36:18;;;;;;;2.60;2.40;;;;;;;6.28;53.25;96345.13;6950762;28;20220;-87
2021/12/10 12:39:42;;;;;;;3.13;2.77;;;;;;;6.98;54.71;96499.09;6949911;28;20210;-87
2021/12/10 12:43:15;;;;;;;2.60;2.40;;;;;;;6.78;55.89;96468.44;6955676;28;20206;-87
2021/12/10 12:50:36;;;;;;;3.33;2.80;;;;;;;5.39;57.36;96261.16;6952967;28;20210;-88
2021/12/10 13:38:01;;;;;;;10.10;6.60;;;;;;;7.29;58.21;96485.22;6908216;28;20224;-86
2021/12/10 13:58:41;;;;;;;6.10;3.73;;;;;;;7.54;56.67;96493.69;6745868;29;20205;-85
2021/12/10 14:02:53;;;;;;;5.87;3.90;;;;;;;7.96;56.68;96491.44;6794920;29;20212;-86
2021/12/10 14:06:35;;;;;;;4.97;4.03;;;;;;;7.58;57.97;96497.53;6798367;29;20277;-85
2021/12/10 14:09:59;;;;;;;6.73;4.07;;;;;;;8.10;55.97;96506.16;6802952;29;20218;-88
2021/12/10 14:13:31;;;;;;;8.03;4.50;;;;;;;7.83;55.75;96505.19;6811818;29;20208;-86
2021/12/10 14:25:37;;;;;;;3.43;3.13;;;;;;;7.90;56.07;96520.06;6765549;29;20319;-89
2021/12/10 15:26:21;;;;;;;4.00;3.60;;;;;;;7.39;58.06;96587.25;6671021;29;20285;-86
2021/12/10 15:30:39;;;;;;;4.83;4.00;;;;;;;7.95;56.82;96603.31;6733429;29;20205;-85
2021/12/10 16:34:51;;;;;;;4.00;3.60;;;;;;;7.80;58.85;96688.88;6681513;29;20235;-86
2021/12/10 16:47:31;;;;;;;6.17;3.80;;;;;;;8.03;57.46;96639.66;6814529;28;20333;-85
2021/12/10 18:04:21;;;;;;;2.80;2.60;;;;;;;7.92;59.04;96755.88;6705964;29;20221;-85
2021/12/10 21:34:36;;;;;;;2.13;2.03;;;;;;;8.53;58.23;97186.50;6711399;29;20226;-83
